Time;durP1;ratioP1;P1;durP2;ratioP2;P2;SDS_P1;SDS_P2;PMS_P1;PMS_P2;Temp;Humidity;BMP_temperature;BMP_pressure;BME280_temperature;BME280_humidity;BME280_pressure;Samples;Min_cycle;Max_cycle;Signal;HPM_P1;HPM_P2
2022/09/04 00:01:44;;;;;;;;;;;;;;;19.48;93.79;101360.06;4948764;28;19934;-63
2022/09/04 00:04:10;;;;;;;;;;;;;;;19.46;92.85;101359.41;4952286;28;19930;-63
2022/09/04 00:06:41;;;;;;;;;;;;;;;19.50;91.87;101363.34;4941938;28;20009;-64
2022/09/04 00:09:31;;;;;;;;;;;;;;;19.46;92.90;101366.56;4954453;28;19926;-63
2022/09/04 00:12:03;;;;;;;;;;;;;;;19.45;92.40;101372.94;4953178;28;19930;-63
2022/09/04 00:14:45;;;;;;;;;;;;;;;19.43;92.30;101369.63;4952385;28;20030;-63
2022/09/04 00:17:28;;;;;;;;;;;;;;;19.34;94.76;101372.41;4948979;28;20267;-63
2022/09/04 00:20:00;;;;;;;;;;;;;;;19.34;96.23;101372.41;4956012;28;19933;-63
2022/09/04 00:22:35;;;;;;;;;;;;;;;19.38;95.55;101377.34;4952579;28;19930;-63
2022/09/04 00:25:10;;;;;;;;;;;;;;;19.39;93.86;101382.50;4948808;28;19926;-63
2022/09/04 00:27:46;;;;;;;;;;;;;;;19.40;94.25;101378.00;4952909;28;19931;-62
2022/09/04 00:30:14;;;;;;;;;;;;;;;19.38;96.18;101380.84;4955007;28;19930;-63
2022/09/04 00:32:41;;;;;;;;;;;;;;;19.33;98.68;101373.44;4948373;28;20025;-63
2022/09/04 00:35:13;;;;;;;;;;;;;;;19.32;100.00;101377.09;4956602;28;19930;-63
2022/09/04 00:37:47;;;;;;;;;;;;;;;19.30;100.00;101375.66;4946913;28;19937;-63
2022/09/04 00:40:13;;;;;;;;;;;;;;;19.29;100.00;101380.16;4944759;28;19925;-63
2022/09/04 00:43:00;;;;;;;;;;;;;;;19.27;100.00;101386.69;4957665;28;19930;-63
2022/09/04 00:45:27;;;;;;;;;;;;;;;19.26;100.00;101388.50;4948171;28;20410;-62
2022/09/04 00:48:12;;;;;;;;;;;;;;;19.27;100.00;101395.47;4951503;28;20013;-63
2022/09/04 00:50:51;;;;;;;;;;;;;;;19.29;98.79;101384.66;4952704;28;19931;-63
2022/09/04 00:53:36;;;;;;;;;;;;;;;19.24;100.00;101401.16;4937009;28;19956;-63
2022/09/04 00:56:02;;;;;;;;;;;;;;;19.20;100.00;101405.22;4947811;28;20024;-63
2022/09/04 00:58:31;;;;;;;;;;;;;;;19.19;100.00;101408.06;4947468;28;19946;-63
2022/09/04 01:00:58;;;;;;;;;;;;;;;19.11;100.00;101407.19;4960031;28;20390;-63
2022/09/04 01:03:39;;;;;;;;;;;;;;;19.10;100.00;101402.88;4941610;28;19973;-63
2022/09/04 01:06:12;;;;;;;;;;;;;;;19.06;100.00;101408.75;4942894;28;19930;-63
2022/09/04 01:08:54;;;;;;;;;;;;;;;19.01;100.00;101406.66;4938427;28;19933;-63
2022/09/04 01:11:42;;;;;;;;;;;;;;;19.01;100.00;101411.97;4958680;28;19930;-63
2022/09/04 01:14:24;;;;;;;;;;;;;;;18.97;100.00;101418.66;4947766;28;20394;-62
2022/09/04 01:17:00;;;;;;;;;;;;;;;18.95;100.00;101418.03;4946492;28;20563;-63
2022/09/04 01:19:41;;;;;;;;;;;;;;;18.93;100.00;101418.25;4945809;28;19930;-63
2022/09/04 01:22:20;;;;;;;;;;;;;;;18.94;100.00;101414.56;4940610;28;19941;-62
2022/09/04 01:24:52;;;;;;;;;;;;;;;18.93;100.00;101414.75;4963805;28;20302;-63
2022/09/04 01:27:27;;;;;;;;;;;;;;;18.91;100.00;101419.41;4949588;28;20620;-63
2022/09/04 01:29:53;;;;;;;;;;;;;;;18.95;100.00;101426.00;4951971;28;19937;-63
2022/09/04 01:32:28;;;;;;;;;;;;;;;18.94;100.00;101429.69;4944628;28;19953;-63
2022/09/04 01:35:07;;;;;;;;;;;;;;;18.93;100.00;101428.88;4950634;28;20330;-63
2022/09/04 01:37:50;;;;;;;;;;;;;;;18.94;100.00;101427.03;4947089;28;19930;-63
2022/09/04 01:40:22;;;;;;;;;;;;;;;18.93;100.00;101428.88;4946575;28;19938;-63
2022/09/04 01:43:05;;;;;;;;;;;;;;;18.87;100.00;101434.09;4951953;28;19933;-62
2022/09/04 01:45:46;;;;;;;;;;;;;;;18.87;100.00;101442.06;4954088;28;19933;-62
2022/09/04 01:48:16;;;;;;;;;;;;;;;18.84;100.00;101442.47;4948074;28;20029;-63
2022/09/04 01:50:44;;;;;;;;;;;;;;;18.82;100.00;101439.97;4940601;28;19949;-63
2022/09/04 01:53:13;;;;;;;;;;;;;;;18.82;100.00;101439.97;4948549;28;19930;-63
2022/09/04 01:55:53;;;;;;;;;;;;;;;18.77;100.00;101443.13;4939876;28;19930;-63
2022/09/04 01:58:38;;;;;;;;;;;;;;;18.75;100.00;101445.16;4946010;28;19927;-64
2022/09/04 02:01:27;;;;;;;;;;;;;;;18.75;100.00;101454.97;4944112;28;20335;-62
2022/09/04 02:04:08;;;;;;;;;;;;;;;18.74;100.00;101450.69;4950856;28;20434;-64
2022/09/04 02:06:53;;;;;;;;;;;;;;;18.69;100.00;101453.06;4949162;28;19927;-63
2022/09/04 02:09:22;;;;;;;;;;;;;;;18.62;100.00;101455.66;4958285;28;19926;-63
2022/09/04 02:11:55;;;;;;;;;;;;;;;18.61;100.00;101458.47;4953586;28;20342;-62
2022/09/04 02:14:36;;;;;;;;;;;;;;;18.57;100.00;101458.84;4944628;28;19926;-62
2022/09/04 02:17:09;;;;;;;;;;;;;;;18.49;100.00;101450.97;4939845;28;19934;-62
2022/09/04 02:19:47;;;;;;;;;;;;;;;18.48;100.00;101461.75;4960242;28;20354;-62
2022/09/04 02:22:19;;;;;;;;;;;;;;;18.46;100.00;101461.13;4954962;28;19930;-62
2022/09/04 02:24:48;;;;;;;;;;;;;;;18.41;100.00;101464.34;4952113;28;19930;-62
2022/09/04 02:27:21;;;;;;;;;;;;;;;18.42;100.00;101470.47;4951365;28;19926;-62
2022/09/04 02:29:53;;;;;;;;;;;;;;;18.43;100.00;101464.16;4949270;28;19930;-62
2022/09/04 02:32:26;;;;;;;;;;;;;;;18.43;100.00;101472.13;4957134;28;19989;-62
2022/09/04 02:35:02;;;;;;;;;;;;;;;18.40;100.00;101464.50;4950293;28;19934;-62
2022/09/04 02:37:47;;;;;;;;;;;;;;;18.40;100.00;101467.16;4952140;28;19930;-62
2022/09/04 02:40:30;;;;;;;;;;;;;;;18.36;100.00;101478.16;4944376;28;20590;-62
2022/09/04 02:43:15;;;;;;;;;;;;;;;18.34;100.00;101458.09;4955766;28;20485;-62
2022/09/04 02:45:54;;;;;;;;;;;;;;;18.31;100.00;101466.44;4942705;28;19934;-62
2022/09/04 02:48:33;;;;;;;;;;;;;;;18.26;100.00;101466.97;4953249;28;19934;-62
2022/09/04 02:51:12;;;;;;;;;;;;;;;18.21;100.00;101471.16;4951039;28;19926;-61
2022/09/04 02:53:38;;;;;;;;;;;;;;;18.20;100.00;101472.19;4959619;28;20411;-62
2022/09/04 02:56:08;;;;;;;;;;;;;;;18.21;100.00;101473.81;4955154;28;19956;-62
2022/09/04 02:59:02;;;;;;;;;;;;;;;18.17;100.00;101468.88;4952873;28;19926;-62
2022/09/04 03:01:38;;;;;;;;;;;;;;;18.11;100.00;101474.94;4947173;28;19930;-62
2022/09/04 03:04:15;;;;;;;;;;;;;;;18.14;100.00;101471.06;4946763;28;19926;-62
2022/09/04 03:06:49;;;;;;;;;;;;;;;18.16;100.00;101471.72;4947981;28;19930;-62
2022/09/04 03:09:25;;;;;;;;;;;;;;;18.12;100.00;101470.44;4949372;28;19933;-62
2022/09/04 03:11:59;;;;;;;;;;;;;;;18.09;100.00;101482.25;4950467;28;19934;-62
2022/09/04 03:14:25;;;;;;;;;;;;;;;18.09;100.00;101487.56;4951109;28;20310;-62
2022/09/04 03:17:15;;;;;;;;;;;;;;;18.08;100.00;101487.72;4955144;28;19930;-63
2022/09/04 03:19:49;;;;;;;;;;;;;;;18.06;100.00;101495.06;4948607;28;19941;-62
2022/09/04 03:22:23;;;;;;;;;;;;;;;17.99;100.00;101497.56;4954315;28;19933;-62
2022/09/04 03:25:11;;;;;;;;;;;;;;;17.98;100.00;101507.38;4951657;28;20319;-62
2022/09/04 03:27:37;;;;;;;;;;;;;;;17.93;100.00;101499.13;4951652;28;20290;-62
2022/09/04 03:30:09;;;;;;;;;;;;;;;17.91;100.00;101501.13;4949666;28;19941;-62
2022/09/04 03:32:35;;;;;;;;;;;;;;;17.89;100.00;101502.31;4947311;28;19933;-62
2022/09/04 03:35:06;;;;;;;;;;;;;;;17.89;100.00;101499.66;4962556;28;19933;-62
2022/09/04 03:37:49;;;;;;;;;;;;;;;17.81;100.00;101505.00;4939812;28;19938;-62
2022/09/04 03:40:31;;;;;;;;;;;;;;;17.79;100.00;101500.69;4950014;28;20397;-62
2022/09/04 03:43:03;;;;;;;;;;;;;;;17.79;100.00;101507.81;4954953;28;19937;-63
2022/09/04 03:45:38;;;;;;;;;;;;;;;17.77;100.00;101509.84;4959560;28;19950;-62
2022/09/04 03:48:13;;;;;;;;;;;;;;;17.74;100.00;101502.25;4951696;28;20290;-61
2022/09/04 03:50:46;;;;;;;;;;;;;;;17.70;100.00;101509.72;4956110;28;19927;-62
2022/09/04 03:53:20;;;;;;;;;;;;;;;17.68;100.00;101509.09;4949461;28;19926;-61
2022/09/04 03:55:46;;;;;;;;;;;;;;;17.68;100.00;101509.09;4947526;28;19930;-62
2022/09/04 03:58:27;;;;;;;;;;;;;;;17.67;100.00;101503.94;4954275;28;19926;-61
2022/09/04 04:01:01;;;;;;;;;;;;;;;17.66;100.00;101513.75;4959540;28;20373;-62
2022/09/04 04:03:59;;;;;;;;;;;;;;;17.63;100.00;101503.47;4955915;28;19975;-63
2022/09/04 04:06:26;;;;;;;;;;;;;;;17.61;100.00;101509.97;4948141;28;19962;-62
2022/09/04 04:08:55;;;;;;;;;;;;;;;17.64;100.00;101513.09;4961302;28;19930;-62
2022/09/04 04:11:44;;;;;;;;;;;;;;;17.65;100.00;101513.91;4954325;28;20552;-62
2022/09/04 04:14:29;;;;;;;;;;;;;;;17.58;100.00;101517.28;4953441;28;19926;-62
2022/09/04 04:16:58;;;;;;;;;;;;;;;17.58;100.00;101519.91;4949281;28;19933;-63
2022/09/04 04:19:44;;;;;;;;;;;;;;;17.57;100.00;101515.59;4951051;28;20387;-62
2022/09/04 04:22:27;;;;;;;;;;;;;;;17.55;100.00;101524.75;4944081;28;19926;-62
2022/09/04 04:25:13;;;;;;;;;;;;;;;17.53;100.00;101529.41;4953539;28;20402;-62
2022/09/04 04:27:43;;;;;;;;;;;;;;;17.50;100.00;101535.84;4949807;28;19931;-61
2022/09/04 04:30:13;;;;;;;;;;;;;;;17.50;100.00;101538.50;4953088;28;20564;-62
2022/09/04 04:32:40;;;;;;;;;;;;;;;17.48;100.00;101542.34;4954314;28;20538;-62
2022/09/04 04:35:11;;;;;;;;;;;;;;;17.46;100.00;101545.16;4953987;28;19945;-63
2022/09/04 04:37:53;;;;;;;;;;;;;;;17.44;100.00;101547.16;4953489;28;20466;-61
2022/09/04 04:40:45;;;;;;;;;;;;;;;17.41;100.00;101544.06;4948723;28;20307;-62
2022/09/04 04:43:18;;;;;;;;;;;;;;;17.34;100.00;101552.69;4958345;28;19940;-62
2022/09/04 04:46:03;;;;;;;;;;;;;;;17.33;100.00;101552.88;4946108;28;20569;-62
2022/09/04 04:48:48;;;;;;;;;;;;;;;17.33;100.00;101551.06;4946992;28;19934;-62
2022/09/04 04:51:24;;;;;;;;;;;;;;;17.33;100.00;101552.88;4945374;28;19930;-61
2022/09/04 04:53:50;;;;;;;;;;;;;;;17.34;100.00;101555.34;4950134;28;19926;-60
2022/09/04 04:56:44;;;;;;;;;;;;;;;17.36;100.00;101555.16;4953907;28;19930;-62
2022/09/04 04:59:19;;;;;;;;;;;;;;;17.32;100.00;101560.00;4954805;28;20020;-62
2022/09/04 05:01:54;;;;;;;;;;;;;;;17.28;100.00;101566.63;4956397;28;19930;-61
2022/09/04 05:04:28;;;;;;;;;;;;;;;17.30;100.00;101563.81;4948938;28;19934;-62
2022/09/04 05:07:14;;;;;;;;;;;;;;;17.28;100.00;101569.28;4947860;28;19930;-62
2022/09/04 05:09:41;;;;;;;;;;;;;;;17.27;100.00;101572.09;4947903;28;19934;-62
2022/09/04 05:12:09;;;;;;;;;;;;;;;17.23;100.00;101574.31;4951666;28;19929;-62
2022/09/04 05:14:49;;;;;;;;;;;;;;;17.22;100.00;101577.13;4942657;28;19931;-62
2022/09/04 05:17:34;;;;;;;;;;;;;;;17.24;100.00;101572.47;4949782;28;19926;-63
2022/09/04 05:20:19;;;;;;;;;;;;;;;17.26;100.00;101581.91;4951096;28;19927;-60
2022/09/04 05:22:48;;;;;;;;;;;;;;;17.24;100.00;101589.19;4959418;28;19937;-63
2022/09/04 05:25:23;;;;;;;;;;;;;;;17.26;100.00;101586.38;4945888;28;19935;-62
2022/09/04 05:28:16;;;;;;;;;;;;;;;17.25;100.00;101592.66;4948457;28;19938;-62
2022/09/04 05:30:49;;;;;;;;;;;;;;;17.28;100.00;101597.63;4936352;28;19930;-62
2022/09/04 05:33:33;;;;;;;;;;;;;;;17.29;100.00;101605.44;4946264;28;20291;-62
2022/09/04 05:36:18;;;;;;;;;;;;;;;17.31;100.00;101603.44;4946468;28;19930;-62
2022/09/04 05:39:02;;;;;;;;;;;;;;;17.32;100.00;101607.72;4950784;28;19941;-62
2022/09/04 05:41:34;;;;;;;;;;;;;;;17.35;100.00;101607.38;4958260;28;20038;-63
2022/09/04 05:44:08;;;;;;;;;;;;;;;17.36;100.00;101610.84;4939920;28;20709;-61
2022/09/04 05:46:52;;;;;;;;;;;;;;;17.41;100.00;101613.84;4955832;28;19930;-63
2022/09/04 05:49:37;;;;;;;;;;;;;;;17.44;100.00;101629.38;4949423;28;19937;-62
2022/09/04 05:52:22;;;;;;;;;;;;;;;17.48;100.00;101627.22;4952375;28;20342;-62
2022/09/04 05:54:59;;;;;;;;;;;;;;;17.51;100.00;101622.41;4943032;28;19937;-62
2022/09/04 05:57:44;;;;;;;;;;;;;;;17.55;100.00;101629.00;4945432;28;19926;-62
2022/09/04 06:00:13;;;;;;;;;;;;;;;17.55;100.00;101633.50;4951179;28;19989;-62
2022/09/04 06:02:39;;;;;;;;;;;;;;;17.57;100.00;101632.31;4949599;28;19965;-62
2022/09/04 06:05:25;;;;;;;;;;;;;;;17.63;100.00;101633.47;4946796;28;19934;-63
2022/09/04 06:08:00;;;;;;;;;;;;;;;17.67;100.00;101642.72;4956066;28;19926;-62
2022/09/04 06:10:46;;;;;;;;;;;;;;;17.72;100.00;101643.03;4948438;28;20025;-62
2022/09/04 06:13:30;;;;;;;;;;;;;;;17.73;100.00;101643.84;4946454;28;19931;-62
2022/09/04 06:16:16;;;;;;;;;;;;;;;17.81;100.00;101646.47;4947641;28;19973;-62
2022/09/04 06:18:43;;;;;;;;;;;;;;;17.87;100.00;101645.78;4947140;28;20411;-62
2022/09/04 06:21:25;;;;;;;;;;;;;;;17.92;100.00;101646.09;4949547;28;19930;-62
2022/09/04 06:24:08;;;;;;;;;;;;;;;18.00;100.00;101644.41;4941872;28;20037;-62
2022/09/04 06:26:34;;;;;;;;;;;;;;;18.03;100.00;101642.22;4945042;28;19926;-63
2022/09/04 06:29:04;;;;;;;;;;;;;;;18.10;100.00;101645.81;4945750;28;19937;-62
2022/09/04 06:31:42;;;;;;;;;;;;;;;18.21;100.00;101643.75;4949466;28;19926;-62
2022/09/04 06:34:16;;;;;;;;;;;;;;;18.27;100.00;101645.69;4944984;28;20391;-62
2022/09/04 06:36:55;;;;;;;;;;;;;;;18.33;100.00;101651.16;4944783;28;19986;-64
2022/09/04 06:39:21;;;;;;;;;;;;;;;18.43;100.00;101652.75;4938741;28;19926;-62
2022/09/04 06:41:50;;;;;;;;;;;;;;;18.52;100.00;101649.00;4949019;28;19930;-63
2022/09/04 06:44:20;;;;;;;;;;;;;;;18.64;100.00;101654.72;4943264;28;19934;-62
2022/09/04 06:46:55;;;;;;;;;;;;;;;18.76;100.00;101658.63;4959969;28;19934;-61
2022/09/04 06:49:47;;;;;;;;;;;;;;;18.84;100.00;101655.91;4952089;28;20258;-63
2022/09/04 06:52:24;;;;;;;;;;;;;;;18.95;100.00;101665.25;4947798;28;19934;-62
2022/09/04 06:54:59;;;;;;;;;;;;;;;19.06;100.00;101664.00;4956126;28;19973;-63
2022/09/04 06:57:45;;;;;;;;;;;;;;;19.19;100.00;101663.34;4946790;28;20626;-62
2022/09/04 07:00:13;;;;;;;;;;;;;;;19.32;100.00;101671.53;4955339;28;19934;-62
2022/09/04 07:02:45;;;;;;;;;;;;;;;19.41;100.00;101664.28;4950043;28;19930;-62
2022/09/04 07:05:21;;;;;;;;;;;;;;;19.50;100.00;101671.16;4950577;28;20015;-64
2022/09/04 07:07:56;;;;;;;;;;;;;;;19.63;100.00;101667.84;4941500;28;19973;-62
2022/09/04 07:10:26;;;;;;;;;;;;;;;19.66;100.00;101668.31;4958000;28;19934;-62
2022/09/04 07:13:11;;;;;;;;;;;;;;;19.80;100.00;101658.69;4946525;28;19930;-62
2022/09/04 07:16:02;;;;;;;;;;;;;;;19.87;100.00;101664.06;4958586;28;19933;-62
2022/09/04 07:18:46;;;;;;;;;;;;;;;19.88;100.00;101663.88;4943550;28;19937;-63
2022/09/04 07:21:33;;;;;;;;;;;;;;;20.03;100.00;101673.66;4951875;28;19934;-62
2022/09/04 07:24:01;;;;;;;;;;;;;;;20.07;100.00;101677.59;4961474;28;19929;-62
2022/09/04 07:26:30;;;;;;;;;;;;;;;20.09;100.00;101679.06;4960084;28;20196;-63
2022/09/04 07:29:15;;;;;;;;;;;;;;;20.19;100.00;101680.59;4962106;28;20561;-61
2022/09/04 07:32:01;;;;;;;;;;;;;;;20.17;100.00;101688.78;4942047;28;19941;-62
2022/09/04 07:34:39;;;;;;;;;;;;;;;20.29;100.00;101689.94;4946868;28;20406;-63
2022/09/04 07:37:16;;;;;;;;;;;;;;;20.37;100.00;101683.66;4952534;28;19931;-62
2022/09/04 07:39:49;;;;;;;;;;;;;;;20.44;100.00;101681.84;4957096;28;19926;-63
2022/09/04 07:42:19;;;;;;;;;;;;;;;20.40;100.00;101691.25;4950532;28;20635;-62
2022/09/04 07:44:49;;;;;;;;;;;;;;;20.39;100.00;101694.13;4952660;28;19927;-62
2022/09/04 07:47:35;;;;;;;;;;;;;;;20.41;100.00;101692.09;4944363;28;19934;-63
2022/09/04 07:50:19;;;;;;;;;;;;;;;20.39;100.00;101692.28;4957986;28;19930;-62
2022/09/04 07:53:18;;;;;;;;;;;;;;;20.44;100.00;101689.84;4953750;28;20556;-62
2022/09/04 07:55:46;;;;;;;;;;;;;;;20.51;100.00;101690.75;4956343;28;19941;-63
2022/09/04 07:58:21;;;;;;;;;;;;;;;20.58;100.00;101692.66;4942154;28;19937;-62
2022/09/04 08:01:06;;;;;;;;;;;;;;;20.60;100.00;101698.63;4950993;28;19930;-62
2022/09/04 08:03:44;;;;;;;;;;;;;;;20.68;100.00;101698.50;4951324;28;19952;-61
2022/09/04 08:06:23;;;;;;;;;;;;;;;20.68;100.00;101699.34;4948424;28;19935;-62
2022/09/04 08:08:49;;;;;;;;;;;;;;;20.75;100.00;101699.38;4952846;28;19937;-62
2022/09/04 08:11:34;;;;;;;;;;;;;;;20.91;100.00;101708.94;4950560;28;19926;-63
2022/09/04 08:14:13;;;;;;;;;;;;;;;21.07;100.00;101708.69;4948142;28;19930;-63
2022/09/04 08:16:49;;;;;;;;;;;;;;;21.33;100.00;101710.69;4957473;28;19931;-63
2022/09/04 08:19:18;;;;;;;;;;;;;;;21.58;100.00;101714.75;4958654;28;19936;-62
2022/09/04 08:21:45;;;;;;;;;;;;;;;21.73;100.00;101718.09;4950192;28;19926;-63
2022/09/04 08:24:24;;;;;;;;;;;;;;;21.98;100.00;101725.59;4954448;28;20302;-63
2022/09/04 08:27:02;;;;;;;;;;;;;;;22.21;100.00;101728.75;4940617;28;19927;-63
2022/09/04 08:29:41;;;;;;;;;;;;;;;22.41;100.00;101720.00;4949733;28;20418;-62
2022/09/04 08:32:10;;;;;;;;;;;;;;;22.49;100.00;101723.28;4953377;28;19934;-63
2022/09/04 08:34:56;;;;;;;;;;;;;;;22.65;100.00;101726.59;4946201;28;20305;-62
2022/09/04 08:37:37;;;;;;;;;;;;;;;22.99;100.00;101730.94;4947665;28;19930;-64
2022/09/04 08:40:23;;;;;;;;;;;;;;;23.19;100.00;101728.25;4938451;28;19935;-63
2022/09/04 08:42:55;;;;;;;;;;;;;;;23.34;97.89;101730.69;4950814;28;20014;-63
2022/09/04 08:45:42;;;;;;;;;;;;;;;23.52;97.44;101729.22;4948819;28;19926;-63
2022/09/04 08:48:29;;;;;;;;;;;;;;;23.62;95.54;101738.47;4947182;28;20283;-63
2022/09/04 08:51:05;;;;;;;;;;;;;;;23.75;96.12;101740.25;4941032;28;20025;-62
2022/09/04 08:53:40;;;;;;;;;;;;;;;23.99;93.81;101741.44;4958118;28;19926;-63
2022/09/04 08:56:20;;;;;;;;;;;;;;;24.24;93.76;101741.47;4942536;28;19930;-63
2022/09/04 08:59:12;;;;;;;;;;;;;;;24.47;91.11;101735.56;4952617;28;19930;-63
2022/09/04 09:01:57;;;;;;;;;;;;;;;24.58;90.25;101738.63;4947069;28;19930;-63
2022/09/04 09:04:30;;;;;;;;;;;;;;;24.53;88.07;101738.47;4950286;28;20422;-63
2022/09/04 09:07:15;;;;;;;;;;;;;;;24.67;88.35;101737.31;4942742;28;19929;-63
2022/09/04 09:10:08;;;;;;;;;;;;;;;24.90;87.35;101743.97;4943113;28;20272;-62
2022/09/04 09:12:53;;;;;;;;;;;;;;;25.05;85.69;101739.91;4946631;28;19928;-62
2022/09/04 09:15:35;;;;;;;;;;;;;;;25.31;84.33;101742.59;4954955;28;19930;-64
2022/09/04 09:18:16;;;;;;;;;;;;;;;25.43;81.43;101738.91;4949631;28;19926;-62
2022/09/04 09:20:55;;;;;;;;;;;;;;;25.71;81.58;101734.88;4951710;28;20303;-63
2022/09/04 09:23:40;;;;;;;;;;;;;;;25.92;79.53;101739.00;4949455;28;20405;-63
2022/09/04 09:26:25;;;;;;;;;;;;;;;25.89;76.71;101734.03;4948385;28;19926;-63
2022/09/04 09:29:11;;;;;;;;;;;;;;;26.09;78.38;101731.13;4954830;28;20011;-64
2022/09/04 09:31:50;;;;;;;;;;;;;;;26.34;79.22;101732.81;4952283;28;19926;-62
2022/09/04 09:34:36;;;;;;;;;;;;;;;26.48;77.49;101730.75;4958251;28;20284;-63
2022/09/04 09:37:12;;;;;;;;;;;;;;;26.54;73.50;101729.84;4931889;28;19930;-63
2022/09/04 09:39:57;;;;;;;;;;;;;;;26.80;74.18;101729.44;4952833;28;19934;-63
2022/09/04 09:42:44;;;;;;;;;;;;;;;27.03;73.93;101725.94;4953583;28;19940;-63
2022/09/04 09:45:10;;;;;;;;;;;;;;;27.02;69.50;101728.84;4954159;28;20001;-63
2022/09/04 09:47:55;;;;;;;;;;;;;;;27.22;70.90;101728.50;4945540;28;20013;-63
2022/09/04 09:50:54;;;;;;;;;;;;;;;27.46;70.20;101733.88;4945205;28;19937;-63
2022/09/04 09:53:36;;;;;;;;;;;;;;;27.45;69.10;101722.28;4943719;28;19948;-63
2022/09/04 09:56:22;;;;;;;;;;;;;;;27.56;68.80;101726.84;4952818;28;19930;-61
2022/09/04 09:58:52;;;;;;;;;;;;;;;27.88;68.66;101723.72;4945532;28;19931;-64
2022/09/04 10:01:21;;;;;;;;;;;;;;;28.13;68.84;101728.75;4956769;28;19933;-64
2022/09/04 10:04:05;;;;;;;;;;;;;;;28.21;65.50;101732.94;4944373;28;19937;-63
2022/09/04 10:06:50;;;;;;;;;;;;;;;28.50;65.56;101732.88;4946886;28;20299;-62
2022/09/04 10:09:40;;;;;;;;;;;;;;;28.50;63.79;101733.72;4957810;28;20495;-63
2022/09/04 10:12:26;;;;;;;;;;;;;;;28.67;63.52;101730.22;4950695;28;19930;-63
2022/09/04 10:15:11;;;;;;;;;;;;;;;28.57;62.39;101734.38;4950159;28;19930;-63
2022/09/04 10:17:56;;;;;;;;;;;;;;;28.66;64.37;101729.41;4940889;28;19960;-62
2022/09/04 10:20:28;;;;;;;;;;;;;;;28.95;63.91;101729.28;4962289;28;19929;-64
2022/09/04 10:23:04;;;;;;;;;;;;;;;29.21;62.33;101735.06;4952882;28;19926;-64
2022/09/04 10:25:48;;;;;;;;;;;;;;;29.17;62.27;101732.09;4962460;28;19937;-64
2022/09/04 10:28:35;;;;;;;;;;;;;;;29.51;62.06;101729.28;4949827;28;20298;-63
2022/09/04 10:31:10;;;;;;;;;;;;;;;29.79;60.95;101727.47;4957020;28;19926;-64
2022/09/04 10:33:56;;;;;;;;;;;;;;;29.88;61.85;101720.53;4944308;28;20022;-64
2022/09/04 10:36:40;;;;;;;;;;;;;;;30.09;60.00;101719.66;4959651;28;19956;-63
2022/09/04 10:42:25;;;;;;;;;;;;;;;30.14;59.48;101722.41;4958626;28;20677;-64
2022/09/04 10:45:09;;;;;;;;;;;;;;;30.17;58.41;101716.50;4949252;28;19930;-64
2022/09/04 10:47:38;;;;;;;;;;;;;;;30.39;57.49;101723.75;4948838;28;19930;-64
2022/09/04 10:50:15;;;;;;;;;;;;;;;30.40;57.39;101721.84;4946787;28;20402;-64
2022/09/04 10:52:50;;;;;;;;;;;;;;;30.43;56.71;101721.34;4956992;28;19931;-64
2022/09/04 10:55:31;;;;;;;;;;;;;;;29.81;57.18;101722.59;4951641;28;19926;-64
2022/09/04 10:58:11;;;;;;;;;;;;;;;29.64;57.81;101723.50;4953776;28;20134;-63
2022/09/04 11:00:49;;;;;;;;;;;;;;;29.65;58.49;101724.28;4947155;28;20318;-64
2022/09/04 11:03:27;;;;;;;;;;;;;;;29.75;58.74;101722.53;4951458;28;20024;-63
2022/09/04 11:06:15;;;;;;;;;;;;;;;29.80;58.81;101721.00;4962495;28;20375;-64
2022/09/04 11:09:02;;;;;;;;;;;;;;;29.63;58.81;101721.84;4953573;28;20409;-63
2022/09/04 11:11:34;;;;;;;;;;;;;;;29.33;59.65;101714.19;4953437;28;19931;-64
2022/09/04 11:14:27;;;;;;;;;;;;;;;29.45;61.59;101722.97;4937402;28;19937;-61
2022/09/04 11:17:05;;;;;;;;;;;;;;;29.86;60.26;101714.56;4952317;28;19953;-63
2022/09/04 11:19:38;;;;;;;;;;;;;;;30.19;59.27;101718.94;4948834;28;19927;-62
2022/09/04 11:22:13;;;;;;;;;;;;;;;30.20;57.45;101715.16;4951385;28;19938;-64
2022/09/04 11:24:46;;;;;;;;;;;;;;;30.00;55.28;101723.91;4949151;28;20315;-65
2022/09/04 11:27:28;;;;;;;;;;;;;;;29.89;56.57;101728.41;4946198;28;19934;-60
2022/09/04 11:30:13;;;;;;;;;;;;;;;29.51;57.11;101723.88;4944583;28;19946;-63
2022/09/04 11:32:56;;;;;;;;;;;;;;;29.54;57.13;101720.63;4950361;28;19954;-63
2022/09/04 11:35:42;;;;;;;;;;;;;;;29.46;57.54;101724.63;4958562;28;19926;-63
2022/09/04 11:38:11;;;;;;;;;;;;;;;29.57;59.50;101720.97;4953255;28;19930;-62
2022/09/04 11:40:56;;;;;;;;;;;;;;;29.75;56.91;101725.25;4951857;28;19961;-63
2022/09/04 11:43:29;;;;;;;;;;;;;;;29.68;56.06;101721.91;4948780;28;19930;-63
2022/09/04 11:46:25;;;;;;;;;;;;;;;29.70;56.71;101722.47;4950693;28;19937;-63
2022/09/04 11:49:10;;;;;;;;;;;;;;;29.73;57.39;101726.56;4958475;28;19926;-63
2022/09/04 11:51:59;;;;;;;;;;;;;;;29.61;56.67;101723.16;4955771;28;19937;-63
2022/09/04 11:54:35;;;;;;;;;;;;;;;29.71;57.21;101724.09;4945951;28;19930;-63
2022/09/04 11:57:12;;;;;;;;;;;;;;;30.11;56.56;101727.53;4953899;28;19926;-63
2022/09/04 11:59:48;;;;;;;;;;;;;;;30.45;55.99;101728.13;4947059;28;20372;-63
2022/09/04 12:02:32;;;;;;;;;;;;;;;30.47;54.44;101723.25;4955293;28;20405;-63
2022/09/04 12:05:02;;;;;;;;;;;;;;;30.38;54.96;101724.81;4949898;28;19941;-63
2022/09/04 12:07:38;;;;;;;;;;;;;;;30.11;54.50;101720.22;4954540;28;19930;-63
2022/09/04 12:10:23;;;;;;;;;;;;;;;29.85;54.64;101724.53;4943661;28;19950;-62
2022/09/04 12:13:09;;;;;;;;;;;;;;;29.87;54.84;101727.00;4951740;28;19931;-63
2022/09/04 12:15:49;;;;;;;;;;;;;;;29.85;54.80;101724.53;4950834;28;20331;-63
2022/09/04 12:18:32;;;;;;;;;;;;;;;30.19;56.13;101728.94;4961729;28;19926;-62
2022/09/04 12:21:07;;;;;;;;;;;;;;;30.25;54.97;101723.31;4947314;28;20766;-62
2022/09/04 12:24:04;;;;;;;;;;;;;;;30.31;53.98;101730.44;4947788;28;19930;-63
2022/09/04 12:26:50;;;;;;;;;;;;;;;30.24;53.45;101723.56;4950635;28;20410;-62
2022/09/04 12:29:20;;;;;;;;;;;;;;;30.13;54.05;101725.38;4950733;28;19957;-63
2022/09/04 12:31:46;;;;;;;;;;;;;;;30.06;53.32;101722.88;4954040;28;20298;-63
2022/09/04 12:34:28;;;;;;;;;;;;;;;30.09;53.76;101725.06;4939880;28;20341;-62
2022/09/04 12:36:58;;;;;;;;;;;;;;;30.08;53.89;101726.13;4948392;28;20722;-62
2022/09/04 12:39:24;;;;;;;;;;;;;;;30.07;54.59;101721.81;4953424;28;19930;-63
2022/09/04 12:42:10;;;;;;;;;;;;;;;30.07;54.63;101738.03;4958822;28;20557;-63
2022/09/04 12:44:44;;;;;;;;;;;;;;;30.23;55.26;101725.47;4949840;28;19931;-63
2022/09/04 12:47:12;;;;;;;;;;;;;;;30.44;53.31;101733.78;4955892;28;19937;-63
2022/09/04 12:49:57;;;;;;;;;;;;;;;30.53;54.07;101734.94;4938281;28;20034;-63
2022/09/04 12:52:38;;;;;;;;;;;;;;;30.59;51.57;101736.63;4950422;28;19953;-63
2022/09/04 12:55:23;;;;;;;;;;;;;;;30.45;51.33;101727.31;4943591;28;20395;-62
2022/09/04 12:58:02;;;;;;;;;;;;;;;30.72;52.41;101732.66;4950835;28;19979;-63
2022/09/04 13:00:33;;;;;;;;;;;;;;;30.63;52.60;101739.63;4949133;28;19931;-62
2022/09/04 13:03:37;;;;;;;;;;;;;;;30.71;54.30;101748.06;4950504;28;19934;-63
2022/09/04 13:06:26;;;;;;;;;;;;;;;30.48;52.73;101737.59;4951677;28;20527;-63
2022/09/04 13:08:52;;;;;;;;;;;;;;;30.43;51.99;101734.88;4952426;28;19929;-65
2022/09/04 13:11:34;;;;;;;;;;;;;;;30.20;53.45;101736.78;4959547;28;19927;-63
2022/09/04 13:14:00;;;;;;;;;;;;;;;30.43;53.78;101738.41;4949340;28;20495;-63
2022/09/04 13:16:39;;;;;;;;;;;;;;;30.44;53.64;101731.91;4952617;28;19931;-63
2022/09/04 13:19:16;;;;;;;;;;;;;;;30.36;52.75;101740.47;4950244;28;19934;-63
2022/09/04 13:21:50;;;;;;;;;;;;;;;30.53;54.45;101741.19;4963823;28;19930;-63
2022/09/04 13:24:30;;;;;;;;;;;;;;;30.39;53.03;101736.47;4959383;28;19934;-63
2022/09/04 13:27:08;;;;;;;;;;;;;;;30.38;53.17;101732.13;4951453;28;20310;-63
2022/09/04 13:29:59;;;;;;;;;;;;;;;30.35;53.54;101742.38;4942822;28;20379;-62